createdAt,value
2023-05-10T00:00:42.572Z,10.08
2023-05-10T00:03:09.738Z,10.07
2023-05-10T00:05:36.564Z,10.05
2023-05-10T00:08:03.334Z,10.04
2023-05-10T00:10:30.184Z,10.04
2023-05-10T00:12:57.264Z,10.01
2023-05-10T00:15:24.115Z,10.01
2023-05-10T00:17:51.071Z,10.00
2023-05-10T00:20:18.211Z,9.99
2023-05-10T00:22:45.421Z,9.98
2023-05-10T00:25:12.261Z,9.98
2023-05-10T00:27:39.052Z,9.97
2023-05-10T00:30:07.406Z,9.96
2023-05-10T00:32:35.708Z,9.96
2023-05-10T00:35:02.588Z,9.95
2023-05-10T00:37:29.350Z,9.93
2023-05-10T00:39:56.110Z,9.92
2023-05-10T00:42:23.354Z,9.90
2023-05-10T00:44:52.319Z,9.88
2023-05-10T00:47:19.094Z,9.85
2023-05-10T00:49:46.106Z,9.83
2023-05-10T00:52:12.853Z,9.81
2023-05-10T00:54:39.625Z,9.79
2023-05-10T00:57:06.504Z,9.76
2023-05-10T00:59:33.581Z,9.74
2023-05-10T01:02:00.646Z,9.71
2023-05-10T01:04:27.811Z,9.69
2023-05-10T01:06:54.909Z,9.67
2023-05-10T01:09:22.469Z,9.67
2023-05-10T01:11:49.259Z,9.66
2023-05-10T01:14:16.324Z,9.65
2023-05-10T01:16:43.074Z,9.65
2023-05-10T01:19:18.388Z,9.64
2023-05-10T01:22:05.134Z,9.63
2023-05-10T01:24:59.593Z,9.61
2023-05-10T01:27:42.782Z,9.56
2023-05-10T01:30:36.524Z,9.52
2023-05-10T01:33:29.971Z,9.50
2023-05-10T01:36:04.711Z,9.47
2023-05-10T01:38:51.725Z,9.43
2023-05-10T01:41:19.866Z,9.42
2023-05-10T01:44:39.734Z,9.40
2023-05-10T01:47:12.195Z,9.38
2023-05-10T01:49:47.628Z,9.35
2023-05-10T01:52:15.713Z,9.35
2023-05-10T01:54:44.428Z,9.35
2023-05-10T01:57:13.255Z,9.35
2023-05-10T01:59:42.643Z,9.35
2023-05-10T02:02:13.248Z,9.35
2023-05-10T02:04:40.711Z,9.34
2023-05-10T02:07:07.974Z,9.35
2023-05-10T02:09:34.827Z,9.36
2023-05-10T02:12:03.648Z,9.36
2023-05-10T02:14:31.989Z,9.36
2023-05-10T02:16:59.834Z,9.36
2023-05-10T02:19:29.067Z,9.36
2023-05-10T02:21:57.321Z,9.35
2023-05-10T02:24:24.186Z,9.34
2023-05-10T02:26:51.024Z,9.34
2023-05-10T02:29:17.964Z,9.34
2023-05-10T02:31:44.855Z,9.34
2023-05-10T02:34:11.774Z,9.34
2023-05-10T02:36:39.346Z,9.33
2023-05-10T02:39:10.467Z,9.33
2023-05-10T02:41:37.211Z,9.32
2023-05-10T02:44:04.000Z,9.32
2023-05-10T02:46:31.313Z,9.32
2023-05-10T02:48:58.335Z,9.32
2023-05-10T02:51:26.837Z,9.32
2023-05-10T02:53:54.488Z,9.30
2023-05-10T02:56:26.159Z,9.29
2023-05-10T02:58:53.596Z,9.27
2023-05-10T03:01:20.384Z,9.25
2023-05-10T03:03:47.180Z,9.25
2023-05-10T03:06:13.928Z,9.26
2023-05-10T03:08:40.891Z,9.28
2023-05-10T03:11:14.172Z,9.30
2023-05-10T03:14:03.123Z,9.30
2023-05-10T03:16:34.484Z,9.32
2023-05-10T03:19:28.962Z,9.32
2023-05-10T03:21:56.293Z,9.35
2023-05-10T03:24:24.345Z,9.38
2023-05-10T03:26:51.570Z,9.41
2023-05-10T03:29:18.497Z,9.46
2023-05-10T03:31:45.411Z,9.49
2023-05-10T03:34:12.337Z,9.53
2023-05-10T03:36:39.094Z,9.56
2023-05-10T03:39:06.038Z,9.58
2023-05-10T03:41:34.074Z,9.61
2023-05-10T03:44:01.148Z,9.64
2023-05-10T03:46:29.148Z,9.69
2023-05-10T03:48:56.350Z,9.74
2023-05-10T03:51:25.242Z,9.78
2023-05-10T03:53:52.234Z,9.82
2023-05-10T03:56:19.508Z,9.86
2023-05-10T03:58:46.273Z,9.91
2023-05-10T04:01:13.101Z,9.94
2023-05-10T04:03:40.095Z,9.98
2023-05-10T04:06:09.424Z,10.03
2023-05-10T04:08:36.694Z,10.09
2023-05-10T04:11:11.237Z,10.13
2023-05-10T04:13:38.257Z,10.18
2023-05-10T04:16:05.865Z,10.22
2023-05-10T04:18:33.062Z,10.28
2023-05-10T04:20:59.829Z,10.33
2023-05-10T04:23:28.155Z,10.40
2023-05-10T04:26:00.933Z,10.47
2023-05-10T04:28:28.283Z,10.53
2023-05-10T04:31:02.173Z,10.58
2023-05-10T04:33:29.162Z,10.63
2023-05-10T04:35:56.043Z,10.68
2023-05-10T04:38:22.801Z,10.73
2023-05-10T04:40:49.657Z,10.81
2023-05-10T04:43:16.486Z,10.87
2023-05-10T04:45:43.308Z,10.93
2023-05-10T04:48:10.520Z,10.99
2023-05-10T04:50:37.666Z,11.04
2023-05-10T04:53:04.553Z,11.09
2023-05-10T04:55:31.334Z,11.14
2023-05-10T04:57:58.305Z,11.18
2023-05-10T05:00:25.764Z,11.23
2023-05-10T05:02:52.739Z,11.28
2023-05-10T05:05:20.128Z,11.34
2023-05-10T05:07:46.912Z,11.41
2023-05-10T05:10:13.790Z,11.46
2023-05-10T05:12:40.838Z,11.51
2023-05-10T05:15:10.277Z,11.56
2023-05-10T05:17:37.423Z,11.63
2023-05-10T05:20:04.867Z,11.71
2023-05-10T05:22:31.588Z,11.79
2023-05-10T05:24:59.319Z,11.89
2023-05-10T05:27:27.389Z,11.98
2023-05-10T05:29:57.834Z,12.06
2023-05-10T05:32:25.291Z,12.12
2023-05-10T05:34:52.544Z,12.19
2023-05-10T05:37:20.470Z,12.26
2023-05-10T05:41:32.700Z,12.37
2023-05-10T05:43:59.853Z,12.42
2023-05-10T05:46:26.965Z,12.48
2023-05-10T05:48:54.039Z,12.54
2023-05-10T05:51:21.362Z,12.58
2023-05-10T05:53:48.213Z,12.61
2023-05-10T05:56:15.140Z,12.66
2023-05-10T05:58:41.967Z,12.70
2023-05-10T06:01:08.730Z,12.75
2023-05-10T06:03:35.711Z,12.82
2023-05-10T06:06:02.808Z,12.89
2023-05-10T06:08:29.638Z,12.97
2023-05-10T06:10:56.431Z,13.05
2023-05-10T06:13:23.360Z,13.12
2023-05-10T06:15:50.212Z,13.17
2023-05-10T06:18:17.083Z,13.19
2023-05-10T06:20:44.102Z,13.17
2023-05-10T06:23:11.170Z,13.17
2023-05-10T06:25:37.967Z,13.16
2023-05-10T06:28:05.183Z,13.17
2023-05-10T06:30:32.026Z,13.19
2023-05-10T06:32:59.076Z,13.22
2023-05-10T06:35:26.739Z,13.24
2023-05-10T06:37:54.155Z,13.27
2023-05-10T06:40:21.040Z,13.30
2023-05-10T06:42:48.770Z,13.35
2023-05-10T06:45:16.804Z,13.40
2023-05-10T06:47:44.062Z,13.46
2023-05-10T06:50:12.537Z,13.49
2023-05-10T06:52:39.501Z,13.47
2023-05-10T06:55:06.697Z,13.51
2023-05-10T06:57:33.516Z,13.57
2023-05-10T07:00:00.479Z,13.61
2023-05-10T07:02:27.634Z,13.65
2023-05-10T07:04:55.255Z,13.71
2023-05-10T07:07:22.320Z,13.69
2023-05-10T07:09:50.070Z,13.67
2023-05-10T07:12:16.873Z,13.71
2023-05-10T07:14:43.930Z,13.77
2023-05-10T07:17:11.149Z,13.80
2023-05-10T07:19:38.081Z,13.82
2023-05-10T07:22:04.876Z,13.83
2023-05-10T07:24:32.417Z,13.83
2023-05-10T07:26:59.220Z,13.84
2023-05-10T07:29:26.126Z,13.84
2023-05-10T07:31:54.485Z,13.84
2023-05-10T07:34:22.843Z,13.86
2023-05-10T07:36:50.203Z,13.89
2023-05-10T07:39:26.589Z,13.91
2023-05-10T07:41:55.713Z,13.93
2023-05-10T07:44:22.508Z,13.92
2023-05-10T07:46:49.814Z,13.92
2023-05-10T07:49:17.018Z,13.92
2023-05-10T07:51:43.894Z,13.93
2023-05-10T07:54:11.061Z,13.95
2023-05-10T07:56:37.917Z,13.97
2023-05-10T07:59:06.087Z,14.02
2023-05-10T08:01:33.687Z,14.06
2023-05-10T08:04:01.220Z,14.08
2023-05-10T08:06:29.213Z,14.10
2023-05-10T08:08:56.593Z,14.13
2023-05-10T08:11:23.612Z,14.19
2023-05-10T08:13:51.108Z,14.20
2023-05-10T08:16:18.250Z,14.23
2023-05-10T08:18:46.708Z,14.31
2023-05-10T08:21:14.861Z,14.40
2023-05-10T08:23:41.839Z,14.52
2023-05-10T08:26:08.785Z,14.63
2023-05-10T08:28:35.643Z,14.73
2023-05-10T08:31:02.578Z,14.80
2023-05-10T08:33:29.362Z,14.89
2023-05-10T08:35:56.154Z,14.97
2023-05-10T08:38:22.949Z,15.03
2023-05-10T08:40:50.330Z,15.08
2023-05-10T08:43:17.448Z,15.14
2023-05-10T08:45:46.575Z,15.19
2023-05-10T08:48:13.464Z,15.22
2023-05-10T08:50:41.367Z,15.30
2023-05-10T08:53:14.300Z,15.41
2023-05-10T08:55:43.184Z,15.51
2023-05-10T08:58:10.444Z,15.61
2023-05-10T09:00:38.435Z,15.68
2023-05-10T09:03:06.501Z,15.72
2023-05-10T09:05:33.995Z,15.73
2023-05-10T09:08:01.716Z,15.72
2023-05-10T09:10:29.038Z,15.64
2023-05-10T09:13:00.178Z,15.59
2023-05-10T09:15:27.216Z,15.56
2023-05-10T09:17:54.216Z,15.49
2023-05-10T09:20:21.681Z,15.44
2023-05-10T09:22:48.580Z,15.45
2023-05-10T09:25:18.377Z,15.48
2023-05-10T09:27:46.876Z,15.53
2023-05-10T09:30:30.723Z,15.58
2023-05-10T09:32:58.527Z,15.58
2023-05-10T09:35:31.662Z,15.58
2023-05-10T09:38:09.184Z,15.64
2023-05-10T09:40:36.140Z,15.77
2023-05-10T09:43:05.388Z,15.83
2023-05-10T09:45:34.657Z,15.92
2023-05-10T09:48:03.806Z,16.04
2023-05-10T09:50:31.109Z,16.15
2023-05-10T09:52:59.544Z,16.22
2023-05-10T09:55:27.736Z,16.24
2023-05-10T09:58:01.830Z,16.22
2023-05-10T10:00:29.731Z,16.33
2023-05-10T10:02:57.749Z,16.46
2023-05-10T10:05:34.642Z,16.60
2023-05-10T10:08:06.279Z,16.64
2023-05-10T10:10:34.184Z,16.69
2023-05-10T10:13:01.103Z,16.70
2023-05-10T10:15:28.069Z,16.83
2023-05-10T10:17:55.656Z,17.02
2023-05-10T10:20:23.624Z,17.19
2023-05-10T10:22:50.719Z,17.32
2023-05-10T10:25:18.360Z,17.45
2023-05-10T10:27:55.119Z,17.53
2023-05-10T10:30:40.573Z,17.54
2023-05-10T10:33:50.819Z,17.54
2023-05-10T10:36:17.708Z,17.50
2023-05-10T10:38:47.759Z,17.46
2023-05-10T10:41:33.672Z,17.49
2023-05-10T10:44:32.238Z,17.40
2023-05-10T10:47:07.142Z,17.45
2023-05-10T10:49:34.968Z,17.59
2023-05-10T10:52:38.088Z,17.74
2023-05-10T10:55:14.865Z,17.87
2023-05-10T10:57:46.690Z,17.88
2023-05-10T11:00:41.604Z,17.89
2023-05-10T11:03:15.901Z,17.95
2023-05-10T11:05:47.369Z,18.00
2023-05-10T11:08:28.501Z,18.00
2023-05-10T11:11:04.646Z,17.93
2023-05-10T11:13:33.556Z,17.87
2023-05-10T11:16:10.447Z,17.87
2023-05-10T11:18:37.447Z,17.84
2023-05-10T11:21:06.216Z,17.83
2023-05-10T11:23:48.094Z,17.84
2023-05-10T11:26:14.946Z,17.90
2023-05-10T11:28:46.078Z,17.95
2023-05-10T11:31:19.632Z,17.96
2023-05-10T11:33:46.987Z,18.04
2023-05-10T11:36:15.465Z,18.11
2023-05-10T11:38:42.312Z,18.19
2023-05-10T11:41:13.332Z,18.33
2023-05-10T11:43:40.877Z,18.41
2023-05-10T11:46:08.692Z,18.46
2023-05-10T11:48:35.487Z,18.52
2023-05-10T11:51:04.711Z,18.58
2023-05-10T11:53:32.581Z,18.69
2023-05-10T11:56:09.180Z,18.79
2023-05-10T11:58:37.085Z,18.80
2023-05-10T12:01:05.210Z,18.76
2023-05-10T12:03:32.353Z,18.62
2023-05-10T12:06:00.135Z,18.51
2023-05-10T12:08:28.321Z,18.50
2023-05-10T12:11:09.142Z,18.54
2023-05-10T12:13:41.443Z,18.66
2023-05-10T12:16:21.814Z,18.64
2023-05-10T12:18:52.784Z,18.69
2023-05-10T12:21:23.082Z,18.76
2023-05-10T12:24:01.382Z,18.85
2023-05-10T12:26:28.920Z,18.92
2023-05-10T12:28:56.150Z,18.95
2023-05-10T12:31:23.056Z,18.99
2023-05-10T12:33:50.494Z,19.06
2023-05-10T12:36:17.732Z,19.23
2023-05-10T12:38:48.910Z,19.44
2023-05-10T12:41:18.168Z,19.58
2023-05-10T12:43:45.082Z,19.58
2023-05-10T12:46:13.725Z,19.66
2023-05-10T12:48:42.032Z,19.71
2023-05-10T12:51:13.681Z,19.76
2023-05-10T12:53:42.567Z,19.80
2023-05-10T12:56:11.565Z,19.88
2023-05-10T12:58:39.367Z,19.91
2023-05-10T13:01:06.417Z,20.05
2023-05-10T13:03:33.948Z,20.25
2023-05-10T13:06:01.829Z,20.46
2023-05-10T13:08:30.819Z,20.66
2023-05-10T13:10:58.192Z,20.82
2023-05-10T13:13:25.385Z,20.93
2023-05-10T13:15:52.309Z,21.00
2023-05-10T13:18:19.351Z,21.00
2023-05-10T13:20:46.413Z,20.88
2023-05-10T13:23:13.426Z,20.69
2023-05-10T13:25:40.334Z,20.59
2023-05-10T13:28:07.323Z,20.48
2023-05-10T13:30:34.553Z,20.33
2023-05-10T13:33:01.838Z,20.18
2023-05-10T13:35:29.128Z,20.02
2023-05-10T13:37:58.698Z,19.77
2023-05-10T13:40:25.729Z,19.54
2023-05-10T13:42:52.661Z,19.40
2023-05-10T13:45:23.687Z,19.30
2023-05-10T13:47:51.413Z,19.17
2023-05-10T13:50:19.197Z,19.10
2023-05-10T13:52:46.471Z,19.06
2023-05-10T13:55:14.522Z,19.02
2023-05-10T13:57:42.208Z,18.95
2023-05-10T14:00:10.777Z,18.90
2023-05-10T14:02:38.068Z,18.88
2023-05-10T14:07:12.135Z,18.84
2023-05-10T14:09:39.235Z,18.90
2023-05-10T14:12:06.074Z,19.13
2023-05-10T14:14:32.860Z,19.91
2023-05-10T14:16:59.748Z,21.03
2023-05-10T14:19:27.665Z,22.33
2023-05-10T14:21:54.613Z,23.82
2023-05-10T14:24:21.491Z,25.24
2023-05-10T14:26:48.332Z,26.44
2023-05-10T14:29:15.607Z,27.49
2023-05-10T14:31:42.571Z,28.69
2023-05-10T14:34:10.118Z,29.90
2023-05-10T14:36:36.991Z,31.02
2023-05-10T14:39:04.449Z,32.13
2023-05-10T14:41:31.456Z,33.23
2023-05-10T14:43:58.210Z,34.21
2023-05-10T14:46:25.001Z,35.00
2023-05-10T14:48:51.763Z,35.70
2023-05-10T14:51:22.202Z,36.45
2023-05-10T14:53:49.862Z,37.23
2023-05-10T14:56:16.794Z,38.03
2023-05-10T14:58:43.788Z,38.78
2023-05-10T15:01:11.291Z,39.49
2023-05-10T15:03:39.149Z,39.96
2023-05-10T15:06:08.085Z,40.16
2023-05-10T15:08:35.367Z,40.25
2023-05-10T15:11:03.546Z,40.23
2023-05-10T15:13:30.507Z,40.30
2023-05-10T15:15:57.621Z,40.47
2023-05-10T15:18:24.504Z,40.40
2023-05-10T15:20:51.256Z,40.01
2023-05-10T15:23:18.108Z,39.17
2023-05-10T15:25:44.930Z,37.95
2023-05-10T15:28:11.942Z,36.51
2023-05-10T15:30:38.984Z,34.98
2023-05-10T15:33:05.707Z,33.53
2023-05-10T15:35:32.657Z,32.30
2023-05-10T15:37:59.501Z,31.17
2023-05-10T15:40:26.387Z,30.37
2023-05-10T15:42:53.433Z,30.16
2023-05-10T15:45:20.290Z,30.51
2023-05-10T15:47:47.214Z,31.17
2023-05-10T15:50:15.106Z,31.95
2023-05-10T15:52:42.084Z,32.78
2023-05-10T15:55:12.174Z,33.66
2023-05-10T15:57:40.693Z,34.50
2023-05-10T16:00:11.711Z,35.23
2023-05-10T16:02:41.680Z,35.89
2023-05-10T16:05:09.235Z,36.41
2023-05-10T16:07:37.622Z,36.81
2023-05-10T16:10:05.975Z,37.10
2023-05-10T16:12:32.945Z,37.41
2023-05-10T16:14:59.758Z,37.67
2023-05-10T16:17:26.647Z,37.84
2023-05-10T16:19:53.612Z,37.90
2023-05-10T16:22:21.698Z,37.88
2023-05-10T16:24:49.234Z,37.84
2023-05-10T16:27:17.227Z,37.82
2023-05-10T16:29:44.219Z,37.63
2023-05-10T16:32:11.541Z,37.39
2023-05-10T16:34:38.862Z,37.16
2023-05-10T16:37:05.868Z,36.91
2023-05-10T16:39:32.704Z,36.69
2023-05-10T16:42:00.504Z,36.48
2023-05-10T16:44:27.876Z,36.26
2023-05-10T16:46:55.179Z,36.02
2023-05-10T16:49:23.745Z,35.70
2023-05-10T16:51:53.206Z,35.38
2023-05-10T16:54:21.422Z,34.99
2023-05-10T16:56:48.147Z,34.56
2023-05-10T16:59:15.787Z,34.14
2023-05-10T17:01:42.961Z,33.73
2023-05-10T17:04:09.735Z,33.34
2023-05-10T17:06:38.347Z,32.87
2023-05-10T17:09:05.612Z,32.25
2023-05-10T17:11:32.693Z,31.61
2023-05-10T17:14:00.870Z,31.06
2023-05-10T17:16:29.110Z,30.37
2023-05-10T17:18:56.166Z,29.61
2023-05-10T17:21:22.879Z,28.79
2023-05-10T17:23:50.130Z,27.94
2023-05-10T17:26:16.908Z,27.09
2023-05-10T17:28:43.670Z,26.24
2023-05-10T17:31:11.154Z,25.41
2023-05-10T17:33:38.102Z,24.66
2023-05-10T17:36:05.011Z,23.99
2023-05-10T17:38:32.015Z,23.35
2023-05-10T17:40:58.717Z,22.77
2023-05-10T17:43:25.691Z,22.17
2023-05-10T17:45:52.409Z,21.58
2023-05-10T17:48:19.211Z,21.04
2023-05-10T17:50:51.547Z,20.54
2023-05-10T17:53:19.384Z,20.05
2023-05-10T17:55:46.432Z,19.57
2023-05-10T17:58:14.835Z,19.15
2023-05-10T18:00:41.746Z,18.78
2023-05-10T18:03:08.493Z,18.45
2023-05-10T18:05:36.815Z,18.14
2023-05-10T18:08:04.774Z,17.87
2023-05-10T18:10:31.679Z,17.58
2023-05-10T18:13:00.178Z,17.30
2023-05-10T18:15:27.454Z,17.06
2023-05-10T18:17:56.062Z,16.83
2023-05-10T18:20:23.442Z,16.61
2023-05-10T18:22:50.551Z,16.38
2023-05-10T18:25:18.408Z,16.19
2023-05-10T18:27:46.689Z,16.03
2023-05-10T18:30:13.968Z,15.85
2023-05-10T18:32:42.289Z,15.67
2023-05-10T18:35:09.384Z,15.50
2023-05-10T18:37:37.314Z,15.33
2023-05-10T18:40:09.050Z,15.19
2023-05-10T18:42:36.041Z,15.07
2023-05-10T18:45:03.433Z,14.95
2023-05-10T18:47:32.600Z,14.83
2023-05-10T18:49:59.394Z,14.72
2023-05-10T18:52:26.248Z,14.61
2023-05-10T18:54:53.220Z,14.50
2023-05-10T18:57:22.109Z,14.41
2023-05-10T18:59:49.059Z,14.30
2023-05-10T19:02:15.883Z,14.23
2023-05-10T19:04:43.415Z,14.15
2023-05-10T19:07:10.700Z,14.09
2023-05-10T19:09:37.623Z,14.04
2023-05-10T19:12:05.880Z,13.97
2023-05-10T19:14:33.198Z,13.91
2023-05-10T19:17:01.659Z,13.85
2023-05-10T19:19:32.218Z,13.78
2023-05-10T19:21:59.168Z,13.71
2023-05-10T19:24:26.624Z,13.66
2023-05-10T19:26:55.334Z,13.60
2023-05-10T19:29:22.721Z,13.55
2023-05-10T19:32:00.011Z,13.49
2023-05-10T19:34:34.516Z,13.43
2023-05-10T19:37:01.087Z,13.35
2023-05-10T19:39:28.049Z,13.29
2023-05-10T19:41:55.224Z,13.24
2023-05-10T19:44:21.783Z,13.19
2023-05-10T19:46:48.555Z,13.15
2023-05-10T19:49:16.922Z,13.10
2023-05-10T19:51:43.964Z,13.05
2023-05-10T19:54:10.835Z,12.99
2023-05-10T19:56:37.605Z,12.96
2023-05-10T19:59:06.092Z,12.92
2023-05-10T20:01:33.437Z,12.89
2023-05-10T20:04:00.337Z,12.86
2023-05-10T20:06:27.135Z,12.82
2023-05-10T20:08:53.798Z,12.79
2023-05-10T20:11:21.161Z,12.76
2023-05-10T20:13:47.732Z,12.72
2023-05-10T20:16:14.564Z,12.66
2023-05-10T20:18:42.349Z,12.62
2023-05-10T20:21:09.218Z,12.58
2023-05-10T20:23:36.670Z,12.55
2023-05-10T20:26:03.534Z,12.52
2023-05-10T20:28:30.507Z,12.51
2023-05-10T20:30:57.415Z,12.50
2023-05-10T20:33:24.463Z,12.49
2023-05-10T20:35:51.747Z,12.47
2023-05-10T20:38:18.624Z,12.43
2023-05-10T20:40:45.876Z,12.39
2023-05-10T20:43:12.528Z,12.36
2023-05-10T20:45:39.177Z,12.33
2023-05-10T20:48:05.879Z,12.30
2023-05-10T20:50:32.970Z,12.26
2023-05-10T20:53:00.369Z,12.23
2023-05-10T20:55:27.604Z,12.20
2023-05-10T20:57:54.432Z,12.16
2023-05-10T21:00:21.123Z,12.14
2023-05-10T21:02:48.535Z,12.11
2023-05-10T21:05:17.077Z,12.07
2023-05-10T21:07:44.348Z,12.05
2023-05-10T21:10:11.047Z,12.02
2023-05-10T21:12:37.949Z,11.99
2023-05-10T21:15:05.251Z,11.96
2023-05-10T21:17:32.845Z,11.93
2023-05-10T21:19:59.672Z,11.91
2023-05-10T21:22:26.438Z,11.90
2023-05-10T21:24:53.331Z,11.88
2023-05-10T21:27:20.079Z,11.87
2023-05-10T21:29:46.737Z,11.86
2023-05-10T21:32:14.488Z,11.84
2023-05-10T21:34:41.376Z,11.82
2023-05-10T21:37:08.416Z,11.78
2023-05-10T21:39:35.781Z,11.76
2023-05-10T21:42:02.971Z,11.72
2023-05-10T21:44:30.862Z,11.68
2023-05-10T21:46:57.770Z,11.66
2023-05-10T21:49:24.626Z,11.65
2023-05-10T21:51:51.632Z,11.64
2023-05-10T21:54:18.454Z,11.64
2023-05-10T21:56:45.236Z,11.64
2023-05-10T21:59:12.043Z,11.64
2023-05-10T22:01:38.981Z,11.64
2023-05-10T22:04:05.764Z,11.63
2023-05-10T22:06:32.535Z,11.61
2023-05-10T22:08:59.266Z,11.60
2023-05-10T22:11:26.850Z,11.59
2023-05-10T22:13:53.993Z,11.57
2023-05-10T22:16:20.805Z,11.57
2023-05-10T22:18:47.780Z,11.55
2023-05-10T22:21:14.696Z,11.55
2023-05-10T22:23:41.441Z,11.55
2023-05-10T22:26:08.104Z,11.55
2023-05-10T22:28:34.835Z,11.54
2023-05-10T22:31:01.560Z,11.51
2023-05-10T22:33:28.482Z,11.49
2023-05-10T22:35:55.449Z,11.47
2023-05-10T22:38:22.489Z,11.45
2023-05-10T22:40:49.643Z,11.42
2023-05-10T22:43:17.333Z,11.39
2023-05-10T22:45:44.037Z,11.37
2023-05-10T22:48:10.828Z,11.34
2023-05-10T22:50:37.916Z,11.31
2023-05-10T22:53:04.602Z,11.29
2023-05-10T22:55:31.477Z,11.27
2023-05-10T22:57:58.369Z,11.26
2023-05-10T23:00:24.978Z,11.23
2023-05-10T23:02:52.264Z,11.20
2023-05-10T23:05:18.940Z,11.17
2023-05-10T23:07:52.276Z,11.14
2023-05-10T23:10:19.567Z,11.11
2023-05-10T23:12:47.109Z,11.09
2023-05-10T23:15:13.954Z,11.07
2023-05-10T23:17:40.922Z,11.06
2023-05-10T23:20:08.156Z,11.05
2023-05-10T23:22:35.273Z,11.02
2023-05-10T23:25:02.452Z,11.01
2023-05-10T23:27:29.973Z,10.98
2023-05-10T23:29:57.391Z,10.95
2023-05-10T23:32:24.061Z,10.93
2023-05-10T23:34:50.784Z,10.92
2023-05-10T23:37:17.490Z,10.90
2023-05-10T23:39:44.325Z,10.89
2023-05-10T23:42:11.030Z,10.87
2023-05-10T23:44:37.758Z,10.85
2023-05-10T23:47:05.433Z,10.84
2023-05-10T23:49:33.432Z,10.83
2023-05-10T23:52:00.599Z,10.81
2023-05-10T23:54:27.888Z,10.81
2023-05-10T23:56:54.615Z,10.80
2023-05-10T23:59:21.208Z,10.79
